»·PEaware :: QXE2075 KGPI-KSEA

QXE2075 :: KGPI-KSEA

FLIGHT INFORMATION

Flight Status: Arrived
Operator:
Horizon Air
More flights by this operator :: More flights under this callsign
Pilot: Henderson P. (1210)
Aircraft: DEHAVILLAND DASH 8 400
(DH8D)
More flights by this aircraft type
Origin: KGPI Glacier Park Intl
United States
Destination: KSEA Seattle-Tacoma Intl
United States
More flights between these airports :: More routes between these airports
Route: KILLY1 EYESE TEMPL GLASR1
File this flight plan on PilotEdge
Remarks:
Altitude:
(Current/Filed)
24,000ft
Speed:
(Current/Filed)
320kts
Departed: 25-Oct-18 02:05 PM
Arrived: 25-Oct-18 03:30 PM
Distance/Time
Traveled:
328nm/1:25
Distance/Time
To Go:
Arrived

Flight Plot

Page will automatically refresh every two minutes.

Flight plan parsing failed; only flown route is shown


Map Options




Map Legend


Flown Route
Filed Route
Departure Airport
Arrival Airport
Navaid (VOR, NDB)
Fix

Horizontal Profiles

Position Reports

Time Latitude Longitude Heading Altitude Ground
Speed
25-Oct-18 13:32 48.308437 -114.252779 125 2976ft 0kts
25-Oct-18 13:33 48.308437 -114.252779 125 2976ft 0kts
25-Oct-18 13:34 48.308437 -114.252779 125 2976ft 0kts
25-Oct-18 13:35 48.308437 -114.252779 125 2976ft 0kts
25-Oct-18 13:36 48.308437 -114.252779 125 2976ft 0kts
25-Oct-18 13:37 48.308437 -114.252779 125 2976ft 0kts
25-Oct-18 13:38 48.308437 -114.252779 125 2976ft 0kts
25-Oct-18 13:39 48.308437 -114.252779 125 2976ft 0kts
25-Oct-18 13:40 48.308437 -114.252779 125 2976ft 0kts
25-Oct-18 13:41 48.308437 -114.252779 125 2976ft 0kts
25-Oct-18 13:42 48.308437 -114.252779 125 2976ft 0kts
25-Oct-18 13:43 48.308437 -114.252779 125 2976ft 0kts
25-Oct-18 13:44 48.308437 -114.252779 125 2976ft 0kts
25-Oct-18 13:45 48.308437 -114.252779 125 2976ft 0kts
25-Oct-18 13:46 48.308437 -114.252779 125 2976ft 0kts
25-Oct-18 13:47 48.308437 -114.252779 125 2976ft 0kts
25-Oct-18 13:48 48.308437 -114.252779 125 2976ft 0kts
25-Oct-18 13:49 48.308437 -114.252779 125 2976ft 0kts
25-Oct-18 13:50 48.308437 -114.252779 125 2976ft 0kts
25-Oct-18 13:51 48.308437 -114.252779 125 2976ft 0kts
25-Oct-18 13:52 48.308437 -114.252779 125 2976ft 0kts
25-Oct-18 13:53 48.308437 -114.252779 125 2976ft 0kts
25-Oct-18 13:54 48.308437 -114.252779 125 2976ft 0kts
25-Oct-18 13:55 48.308437 -114.252779 125 2976ft 0kts
25-Oct-18 13:56 48.308712 -114.253291 136 2976ft 2kts
25-Oct-18 13:57 48.308993 -114.253577 152 2976ft 0kts
25-Oct-18 13:58 48.308994 -114.253577 152 2976ft 0kts
25-Oct-18 13:59 48.308653 -114.253804 217 2977ft 7kts
25-Oct-18 14:00 48.306302 -114.257800 214 2977ft 17kts
25-Oct-18 14:01 48.302302 -114.261965 214 2977ft 25kts
25-Oct-18 14:02 48.298399 -114.266328 265 2977ft 3kts
25-Oct-18 14:03 48.298399 -114.266395 270 2976ft 0kts
25-Oct-18 14:04 48.298399 -114.266395 270 2976ft 0kts
25-Oct-18 14:05 48.298399 -114.266395 270 2976ft 0kts
25-Oct-18 14:06 48.298399 -114.266395 270 2976ft 0kts
25-Oct-18 14:07 48.299908 -114.266516 34 2977ft 41kts
25-Oct-18 14:08 48.329382 -114.235984 36 4085ft 156kts
25-Oct-18 14:09 48.372563 -114.244644 314 5912ft 210kts
25-Oct-18 14:10 48.411413 -114.315969 303 8144ft 238kts
25-Oct-18 14:11 48.422836 -114.403693 249 10529ft 235kts
25-Oct-18 14:12 48.389419 -114.485365 239 12006ft 244kts
25-Oct-18 14:13 48.328335 -114.529531 193 13239ft 275kts
25-Oct-18 14:14 48.252483 -114.535990 188 14384ft 284kts
25-Oct-18 14:15 48.175643 -114.550189 212 15369ft 271kts
25-Oct-18 14:16 48.137431 -114.632498 256 16347ft 243kts
25-Oct-18 14:17 48.118212 -114.726342 261 17355ft 239kts
25-Oct-18 14:18 48.101731 -114.820995 261 18333ft 237kts
25-Oct-18 14:19 48.085156 -114.914636 261 19311ft 233kts
25-Oct-18 14:20 48.068838 -115.005812 261 20308ft 228kts
25-Oct-18 14:21 48.052531 -115.096655 262 21297ft 226kts
25-Oct-18 14:22 48.036325 -115.186346 262 22284ft 222kts
25-Oct-18 14:23 48.020382 -115.274259 262 23269ft 217kts
25-Oct-18 14:24 48.004686 -115.360496 263 24104ft 218kts
25-Oct-18 14:25 47.998245 -115.455314 272 24198ft 246kts
25-Oct-18 14:26 47.992987 -115.561759 271 24199ft 271kts
25-Oct-18 14:27 47.987200 -115.676522 271 24201ft 287kts
25-Oct-18 14:28 47.981014 -115.796066 270 24195ft 296kts
25-Oct-18 14:29 47.974579 -115.918676 270 24193ft 302kts
25-Oct-18 14:30 47.967967 -116.042011 270 24190ft 305kts
25-Oct-18 14:31 47.961112 -116.167114 270 24187ft 307kts
25-Oct-18 14:32 47.954120 -116.292691 270 24185ft 308kts
25-Oct-18 14:33 47.946954 -116.418497 270 24182ft 309kts
25-Oct-18 14:34 47.939644 -116.543964 270 24180ft 309kts
25-Oct-18 14:35 47.932422 -116.666752 270 24179ft 308kts
25-Oct-18 14:36 47.924940 -116.790517 270 24178ft 307kts
25-Oct-18 14:37 47.917352 -116.914467 269 24176ft 306kts
25-Oct-18 14:38 47.909735 -117.037137 269 24177ft 304kts
25-Oct-18 14:39 47.902042 -117.158921 269 24178ft 302kts
25-Oct-18 14:40 47.894343 -117.279093 269 24179ft 300kts
25-Oct-18 14:41 47.886498 -117.399652 269 24181ft 298kts
25-Oct-18 14:42 47.878745 -117.517131 269 24181ft 297kts
25-Oct-18 14:43 47.871025 -117.631614 269 24180ft 296kts
25-Oct-18 14:44 47.863119 -117.747608 269 24178ft 295kts
25-Oct-18 14:45 47.854934 -117.865680 269 24176ft 294kts
25-Oct-18 14:46 47.846598 -117.983825 268 24175ft 294kts
25-Oct-18 14:47 47.838187 -118.101050 268 24173ft 293kts
25-Oct-18 14:48 47.829450 -118.221243 268 24171ft 293kts
25-Oct-18 14:49 47.820512 -118.342087 268 24168ft 293kts
25-Oct-18 14:50 47.811597 -118.462027 268 24158ft 292kts
25-Oct-18 14:51 47.802593 -118.580109 267 24155ft 292kts
25-Oct-18 14:52 47.793541 -118.698548 268 24153ft 291kts
25-Oct-18 14:53 47.784279 -118.817659 267 24150ft 290kts
25-Oct-18 14:54 47.774959 -118.936162 267 24148ft 289kts
25-Oct-18 14:55 47.765614 -119.053495 267 24146ft 288kts
25-Oct-18 14:56 47.756044 -119.171633 266 24147ft 286kts
25-Oct-18 14:57 47.746422 -119.288493 266 24144ft 284kts
25-Oct-18 14:58 47.736640 -119.405667 266 24143ft 283kts
25-Oct-18 14:59 47.733213 -119.521643 277 24143ft 279kts
25-Oct-18 15:00 47.742090 -119.635105 277 24139ft 278kts
25-Oct-18 15:01 47.750924 -119.748217 277 24133ft 276kts
25-Oct-18 15:02 47.759062 -119.855066 276 24138ft 275kts
25-Oct-18 15:03 47.767653 -119.966105 277 24135ft 274kts
25-Oct-18 15:04 47.776159 -120.078967 276 24129ft 274kts
25-Oct-18 15:05 47.784521 -120.191265 276 24133ft 273kts
25-Oct-18 15:06 47.792845 -120.303652 276 24134ft 273kts
25-Oct-18 15:07 47.801044 -120.416234 276 24134ft 273kts
25-Oct-18 15:08 47.809054 -120.528577 276 24133ft 273kts
25-Oct-18 15:09 47.817030 -120.641768 276 24132ft 273kts
25-Oct-18 15:10 47.824817 -120.753620 275 24127ft 273kts
25-Oct-18 15:11 47.832647 -120.866883 275 23371ft 281kts
25-Oct-18 15:12 47.840746 -120.984976 274 21502ft 294kts
25-Oct-18 15:13 47.848704 -121.105319 274 19595ft 310kts
25-Oct-18 15:14 47.857267 -121.236872 273 17475ft 327kts
25-Oct-18 15:15 47.865510 -121.364065 273 15393ft 318kts
25-Oct-18 15:16 47.872717 -121.477285 272 13580ft 291kts
25-Oct-18 15:17 47.879142 -121.580127 271 11953ft 269kts
25-Oct-18 15:18 47.882015 -121.681800 252 10418ft 258kts
25-Oct-18 15:19 47.857376 -121.778422 246 8860ft 251kts
25-Oct-18 15:20 47.836273 -121.864572 246 7228ft 232kts
25-Oct-18 15:21 47.815529 -121.955010 246 5450ft 237kts
25-Oct-18 15:22 47.798105 -122.035683 249 4974ft 232kts
25-Oct-18 15:23 47.779690 -122.125203 246 4987ft 225kts
25-Oct-18 15:24 47.760742 -122.211318 246 4991ft 221kts
25-Oct-18 15:25 47.722215 -122.271631 206 4414ft 218kts
25-Oct-18 15:26 47.666553 -122.297876 191 4088ft 202kts
25-Oct-18 15:27 47.618743 -122.306928 184 3453ft 180kts
25-Oct-18 15:28 47.573592 -122.309596 180 2591ft 147kts
25-Oct-18 15:29 47.538579 -122.309872 179 1904ft 126kts
25-Oct-18 15:30 47.504164 -122.310232 179 1248ft 125kts
25-Oct-18 15:31 47.469951 -122.310804 180 589ft 124kts
25-Oct-18 15:32 47.447149 -122.309843 148 441ft 25kts
25-Oct-18 15:33 47.445975 -122.306459 54 441ft 9kts
25-Oct-18 15:34 47.446652 -122.305290 140 441ft 8kts
25-Oct-18 15:35 47.446627 -122.304758 90 440ft 0kts
25-Oct-18 15:36 47.446627 -122.304758 90 440ft 0kts

Navigation Log

Ident Type
Flight plan parsing failed, navigation log unavailable